createdAt,value
2023-01-06T00:00:33.535Z,20.7
2023-01-06T00:15:32.508Z,20.6
2023-01-06T00:30:32.940Z,20.7
2023-01-06T00:45:32.028Z,20.6
2023-01-06T01:00:32.547Z,20.6
2023-01-06T01:15:32.379Z,20.6
2023-01-06T01:30:32.619Z,20.6
2023-01-06T01:45:32.245Z,20.6
2023-01-06T02:00:31.774Z,20.6
2023-01-06T02:15:32.373Z,20.5
2023-01-06T02:30:32.318Z,20.5
2023-01-06T02:45:32.339Z,20.5
2023-01-06T03:00:32.137Z,20.5
2023-01-06T03:15:32.644Z,20.5
2023-01-06T03:30:32.862Z,20.5
2023-01-06T03:45:32.738Z,20.4
2023-01-06T04:00:32.003Z,20.4
2023-01-06T04:15:31.875Z,20.4
2023-01-06T04:30:32.746Z,20.4
2023-01-06T04:45:32.489Z,20.3
2023-01-06T05:00:31.868Z,20.3
2023-01-06T05:15:32.523Z,20.3
2023-01-06T05:30:31.909Z,20.3
2023-01-06T05:45:32.214Z,20.3
2023-01-06T06:00:32.468Z,20.3
2023-01-06T06:15:32.646Z,20.2
2023-01-06T06:30:31.976Z,20.2
2023-01-06T06:45:32.707Z,20.2
2023-01-06T07:00:36.408Z,20.2
2023-01-06T07:15:32.758Z,20.2
2023-01-06T07:30:33.458Z,20.2
2023-01-06T07:45:32.472Z,20.2
2023-01-06T08:00:34.154Z,20.3
2023-01-06T08:15:32.735Z,20.3
2023-01-06T08:30:32.241Z,20.3
2023-01-06T08:45:33.014Z,20.3
2023-01-06T09:00:34.319Z,20.4
2023-01-06T09:15:32.732Z,20.4
2023-01-06T09:30:32.490Z,20.5
2023-01-06T09:45:32.558Z,20.6
2023-01-06T10:00:34.423Z,20.6
2023-01-06T10:15:32.260Z,20.6
2023-01-06T10:30:33.830Z,20.7
2023-01-06T10:45:32.343Z,20.7
2023-01-06T11:00:33.530Z,20.7
2023-01-06T11:15:32.598Z,20.7
2023-01-06T11:30:31.962Z,20.8
2023-01-06T11:45:32.825Z,20.8
2023-01-06T12:00:33.388Z,20.8
2023-01-06T12:15:31.917Z,20.8
2023-01-06T12:30:32.807Z,20.9
2023-01-06T12:45:32.069Z,20.9
2023-01-06T13:00:34.307Z,20.9
2023-01-06T13:15:32.122Z,20.9
2023-01-06T13:30:32.342Z,20.9
2023-01-06T13:45:32.361Z,20.9
2023-01-06T14:00:33.720Z,20.9
2023-01-06T14:15:32.100Z,20.9
2023-01-06T14:30:32.047Z,20.9
2023-01-06T14:45:32.479Z,20.9
2023-01-06T15:00:34.897Z,20.9
2023-01-06T15:15:32.772Z,20.8
2023-01-06T15:30:34.041Z,20.8
2023-01-06T15:45:32.389Z,20.8
2023-01-06T16:00:33.581Z,20.8
2023-01-06T16:15:31.979Z,20.7
2023-01-06T16:30:33.574Z,20.7
2023-01-06T16:45:33.152Z,20.7
2023-01-06T17:00:35.871Z,20.7
2023-01-06T17:15:32.489Z,20.6
2023-01-06T17:30:32.801Z,20.6
2023-01-06T17:45:32.327Z,20.6
2023-01-06T18:00:37.863Z,20.6
2023-01-06T18:15:32.965Z,20.6
2023-01-06T18:30:32.352Z,20.6
2023-01-06T18:45:32.557Z,20.5
2023-01-06T19:00:33.313Z,20.5
2023-01-06T19:15:32.839Z,20.5
2023-01-06T19:30:33.263Z,20.5
2023-01-06T19:45:34.922Z,20.5
2023-01-06T20:00:33.070Z,20.5
2023-01-06T20:15:32.068Z,20.5
2023-01-06T20:30:33.163Z,20.5
2023-01-06T20:45:32.896Z,20.4
2023-01-06T21:00:32.523Z,20.4
2023-01-06T21:15:32.213Z,20.4
2023-01-06T21:30:32.379Z,20.4
2023-01-06T21:45:32.219Z,20.4
2023-01-06T22:00:33.055Z,20.4
2023-01-06T22:15:31.888Z,20.4
2023-01-06T22:30:32.808Z,20.4
2023-01-06T22:45:32.011Z,20.3
2023-01-06T23:00:32.480Z,20.3
2023-01-06T23:15:32.455Z,20.3
2023-01-06T23:30:31.978Z,20.3
2023-01-06T23:45:31.987Z,20.3
